METAR Data
IDs: Format: Raw Decoded Include TAF

Data at: 2204 UTC 24 Mar 2019

KSWW 242155Z AUTO 25011G17KT 10SM CLR 28/01 A3001 RMK AO2 T02800005
KSWW 242135Z AUTO 22014G22KT 10SM CLR 28/00 A3002 RMK AO2 T02770000
KSWW 242115Z AUTO 24011KT 10SM CLR 28/01 A3002 RMK AO2 T02770014
KSWW 242055Z AUTO 24010G16KT 10SM CLR 27/02 A3002 RMK AO2 T02720021
KSWW 242035Z AUTO 25010KT 10SM CLR 27/04 A3002 RMK AO2 T02700040
KSWW 242015Z AUTO 22008G18KT 10SM CLR 27/04 A3003 RMK AO2 T02670036
KSWW 241955Z AUTO 22010G16KT 10SM CLR 27/06 A3004 RMK AO2 T02650057
KSWW 241935Z AUTO 23012G18KT 10SM CLR 26/06 A3006 RMK AO2 T02580059
KSWW 241915Z AUTO 22013G19KT 10SM CLR 26/07 A3006 RMK AO2 T02600069
KSWW 241855Z AUTO 21014G19KT 10SM CLR 26/07 A3007 RMK AO2 T02560071
KSWW 241835Z AUTO 23013G16KT 10SM CLR 25/06 A3007 RMK AO2 T02530056
KSWW 241815Z AUTO 20009G15KT 200V260 10SM CLR 25/09 A3008 RMK AO2 T02500089
KSWW 241755Z AUTO 24012G17KT 10SM CLR 24/11 A3009 RMK AO2 T02400107 10241 20140
KSWW 241735Z AUTO 21009G15KT 10SM CLR 23/12 A3009 RMK AO2 T02320121
KSWW 241715Z AUTO 23010G16KT 10SM CLR 23/13 A3010 RMK AO2 T02260134
KSWW 241655Z AUTO 21010KT 10SM CLR 22/14 A3010 RMK AO2 T02180136
KSWW 241635Z AUTO 22012KT 10SM CLR 22/14 A3011 RMK AO2 T02150140
KSWW 241615Z AUTO 21011G18KT 10SM CLR 21/14 A3010 RMK AO2 T02090140
KSWW 241555Z AUTO 21012KT 10SM CLR 20/14 A3010 RMK AO2 T02040143
KSWW 241535Z AUTO 20013KT 10SM CLR 20/14 A3009 RMK AO2 T02000143
KSWW 241515Z AUTO 19014KT 10SM CLR 19/15 A3009 RMK AO2 T01930149
KSWW 241455Z AUTO 20015KT 10SM SCT013 18/15 A3009 RMK AO2 T01800150
KSWW 241435Z AUTO 20014KT 10SM CLR 18/15 A3008 RMK AO2 T01770150
KSWW 241415Z AUTO 20012KT 10SM CLR 17/15 A3008 RMK AO2 T01700148
KSWW 241355Z AUTO 19012KT 10SM CLR 16/15 A3007 RMK AO2 T01620151
KSWW 241335Z AUTO 18008KT 10SM CLR 15/15 A3006 RMK AO2 T01490149
KSWW 241315Z AUTO 19007KT 10SM CLR 14/14 A3006 RMK AO2 T01420142
KSWW 241255Z AUTO 19008KT 10SM CLR 14/14 A3005 RMK AO2 T01410141
KSWW 241235Z AUTO 19008KT 10SM SCT001 SCT010 15/15 A3005 RMK AO2 T01460145
KSWW 241215Z AUTO 19010KT 10SM OVC010 16/15 A3004 RMK AO2 T01570146
KSWW 241155Z AUTO 19012G18KT 10SM OVC010 16/15 A3004 RMK AO2 T01580148 10160 20125
KSWW 241135Z AUTO 20011KT 10SM OVC010 15/15 A3004 RMK AO2 T01490149
KSWW 241115Z AUTO 19009KT 10SM BKN010 14/14 A3004 RMK AO2 T01350135
KSWW 241055Z AUTO 19009KT 10SM CLR 13/13 A3004 RMK AO2 T01300128
KSWW 241035Z AUTO 19008KT 10SM CLR 13/12 A3004 RMK AO2 T01310121
KSWW 241015Z AUTO 19008KT 10SM CLR 15/13 A3003 RMK AO2 T01460125
KSWW 240955Z AUTO 20009KT 10SM CLR 15/13 A3002 RMK AO2 T01490126
KSWW 240935Z AUTO 19009KT 10SM CLR 15/12 A3002 RMK AO2 T01450122
KSWW 240915Z AUTO 18008KT 10SM CLR 14/11 A3002 RMK AO2 T01410113
KSWW 240855Z AUTO 19007KT 10SM CLR 14/10 A3002 RMK AO2 T01400100
KSWW 240835Z AUTO 19008KT 10SM CLR 15/10 A3002 RMK AO2 T01460096
KSWW 240815Z AUTO 19011KT 10SM CLR 15/09 A3003 RMK AO2 T01530093
KSWW 240755Z AUTO 19012KT 10SM CLR 16/09 A3003 RMK AO2 T01550087
KSWW 240735Z AUTO 19013KT 10SM CLR 16/07 A3003 RMK AO2 T01560074
KSWW 240715Z AUTO 19012KT 10SM CLR 16/06 A3003 RMK AO2 T01600056
KSWW 240655Z AUTO 17009KT 10SM CLR 14/01 A3003 RMK AO2 T01370010
KSWW 240635Z AUTO 16009KT 10SM CLR 13/01 A3003 RMK AO2 T01290008
KSWW 240615Z AUTO 16010KT 10SM CLR 14/00 A3003 RMK AO2 T01440000
KSWW 240555Z AUTO 18008KT 10SM CLR 15/00 A3002 RMK AO2 T01481003 10229 20147 402460145
KSWW 240535Z AUTO 18008KT 10SM CLR 15/00 A3003 RMK AO2 T01511005
KSWW 240515Z AUTO 18007KT 10SM CLR 16/M01 A3003 RMK AO2 T01621007
KSWW 240455Z AUTO 18007KT 10SM CLR 16/M01 A3003 RMK AO2 T01601006
KSWW 240435Z AUTO 18007KT 10SM CLR 16/M01 A3003 RMK AO2 T01601010
KSWW 240415Z AUTO 20006KT 10SM CLR 17/M01 A3004 RMK AO2 T01721014
KSWW 240355Z AUTO 20006KT 10SM CLR 17/M01 A3004 RMK AO2 T01721011
KSWW 240335Z AUTO 19006KT 10SM CLR 18/M01 A3003 RMK AO2 T01771008
KSWW 240315Z AUTO 21006KT 10SM CLR 19/M01 A3003 RMK AO2 T01921015
KSWW 240255Z AUTO 20007KT 10SM CLR 18/M01 A3002 RMK AO2 T01811010
KSWW 240235Z AUTO 20007KT 10SM CLR 17/00 A3001 RMK AO2 T01731004
KSWW 240215Z AUTO 18007KT 10SM CLR 17/00 A3000 RMK AO2 T01711003
KSWW 240155Z AUTO 21008KT 10SM CLR 20/M01 A2999 RMK AO2 T01951012
KSWW 240135Z AUTO 23007KT 10SM CLR 21/M02 A2999 RMK AO2 T02051019
KSWW 240115Z AUTO 20008KT 10SM CLR 20/M02 A2998 RMK AO2 T02011018
KSWW 240055Z AUTO 20007KT 10SM CLR 21/M02 A2998 RMK AO2 T02121023
KSWW 240035Z AUTO 21006KT 10SM CLR 22/M03 A2999 RMK AO2 T02151027
KSWW 240015Z AUTO 23007KT 10SM CLR 22/M05 A2999 RMK AO2 T02231047
KSWW 232355Z AUTO 23009KT 10SM CLR 23/M05 A2999 RMK AO2 T02301046 10246 20207
KSWW 232335Z AUTO 24009KT 10SM CLR 24/M03 A2999 RMK AO2 T02351031
KSWW 232315Z AUTO 23009G15KT 10SM CLR 24/M04 A2998 RMK AO2 LTG DSNT NE T02411044
KSWW 232255Z AUTO 22007KT 10SM CLR 24/M04 A2999 RMK AO2 T02421038
KSWW 232235Z AUTO 23010KT 10SM CLR 24/M03 A2999 RMK AO2 T02421026
KSWW 232215Z AUTO 22008KT 10SM CLR 24/M02 A2999 RMK AO2 T02401023
KSWW 232155Z AUTO 24009G15KT 10SM CLR 24/M02 A3000 RMK AO2 T02391025
KSWW 232135Z AUTO 26010KT 10SM CLR 24/M02 A2999 RMK AO2 T02361025
KSWW 232115Z AUTO 24008G17KT 10SM CLR 25/00 A2999 RMK AO2 T02451001
KSWW 232055Z AUTO 23010KT 10SM CLR 25/M01 A3000 RMK AO2 T02461010
KSWW 232035Z AUTO 25011G15KT 10SM CLR 24/00 A3000 RMK AO2 LTG DSNT NE T02400002
KSWW 232015Z AUTO 24008G16KT 180V280 10SM CLR 23/01 A3000 RMK AO2 T02340012
KSWW 231955Z AUTO 00000KT 10SM CLR 23/00 A3001 RMK AO2 T02310004
KSWW 231935Z AUTO 27007KT 10SM CLR 23/02 A3001 RMK AO2 T02340017
KSWW 231915Z AUTO 23007G14KT 10SM CLR 23/01 A3002 RMK AO2 T02290014
KSWW 231855Z AUTO 20009KT 10SM CLR 23/03 A3003 RMK AO2 T02280034
KSWW 231835Z AUTO 28004KT 10SM CLR 22/03 A3004 RMK AO2 T02210028
KSWW 231815Z AUTO 22007KT 10SM CLR 21/06 A3005 RMK AO2 T02120064
KSWW 231755Z AUTO 24006KT 10SM CLR 21/08 A3005 RMK AO2 T02070075 10209 20147
KSWW 231735Z AUTO 22008KT 10SM CLR 20/09 A3005 RMK AO2 T02010091
KSWW 231715Z AUTO 23009G16KT 10SM CLR 20/11 A3006 RMK AO2 LTG DSNT NE T01960105
KSWW 231655Z AUTO 24011G15KT 10SM CLR 19/11 A3007 RMK AO2 T01940111
KSWW 231635Z AUTO 23013G17KT 10SM SCT022 19/12 A3006 RMK AO2 LTG DSNT NE T01900118
KSWW 231615Z AUTO 23011G16KT 10SM SCT017 19/12 A3006 RMK AO2 LTG DSNT NE T01920123
KSWW 231555Z AUTO 22013G19KT 10SM SCT017 19/13 A3007 RMK AO2 LTG DSNT NE T01880130
KSWW 231535Z AUTO 21015G20KT 10SM SCT015 18/13 A3007 RMK AO2 T01800131
KSWW 231515Z AUTO 22014KT 10SM SCT013 SCT019 18/13 A3007 RMK AO2 LTG DSNT NE T01760132
KSWW 231455Z AUTO 21013KT 10SM CLR 17/14 A3007 RMK AO2 LTG DSNT NE T01720136
KSWW 231435Z AUTO 21011KT 10SM SCT023 17/14 A3006 RMK AO2 LTG DSNT NE T01680135
KSWW 231415Z AUTO 21011KT 10SM SCT018 SCT026 17/14 A3006 RMK AO2 T01670137
KSWW 231355Z AUTO 20011KT 10SM SCT020 SCT026 17/14 A3005 RMK AO2 LTG DSNT E T01650136
KSWW 231335Z AUTO 20010KT 10SM BKN020 16/14 A3004 RMK AO2 T01610136
KSWW 231315Z AUTO 19011KT 10SM BKN018 16/14 A3003 RMK AO2 T01560135
KSWW 231255Z AUTO 19010KT 10SM SCT018 15/13 A3002 RMK AO2 T01500130
KSWW 231235Z AUTO 19010KT 10SM SCT018 15/13 A3001 RMK AO2 LTG DSNT E T01480130
KSWW 231215Z AUTO 17012KT 10SM CLR 15/13 A3000 RMK AO2 T01470128
KSWW 231155Z AUTO 18011KT 10SM SCT019 15/13 A2999 RMK AO2 T01470126 10168 20145
KSWW 231135Z AUTO 18011KT 10SM CLR 15/13 A2999 RMK AO2 T01460125
KSWW 231115Z AUTO 17011KT 10SM CLR 15/12 A2998 RMK AO2 LTG DSNT E T01450122
KSWW 231055Z AUTO 17011KT 10SM CLR 15/12 A2998 RMK AO2 T01460121
KSWW 231035Z AUTO 18011KT 10SM CLR 15/12 A2998 RMK AO2 T01460120
KSWW 231015Z AUTO 18011KT 10SM CLR 15/12 A2998 RMK AO2 T01500120